Archival Weather

Southern Wisconsin Rgnl

Janesville, Wisconsin (KJVL)

Report from: Tuesday, June 6, 2023 4:55 AM CDT
Current time: Wednesday, December 6, 2023 1:38 AM CST

Current weather – Weather history – Daily summaries
Weather forecast

Temperature16.0°C (60.8°F)
Dew point8.0°C (46.4°F)
Winds Calm
Visibility10 mi. (16.1 km)
Clouds Ceiling: Broken clouds 12,000 ft. (3,658 m)
Altimeter30.01 in.Hg (1016 mB)
Relative humidity59 %
Density altitude171 ft. (52 m)
Remarks Fully automated report
Automated weather observing station with precipitation discriminator
Flight conditions Visual Meteorological Conditions
Raw dataKJVL 060955Z AUTO 00000KT 10SM BKN120 16/08 A3001 RMK AO2
An error has occurred. This application may no longer respond until reloaded. Reload 🗙